sensor_id;sensor_type;location;lat;lon;timestamp;P1;durP1;ratioP1;P2;durP2;ratioP2
8642;SDS011;4359;49.358;11.256;2022-09-09T00:04:24;5.47;;;2.45;;
8642;SDS011;4359;49.358;11.256;2022-09-09T00:07:03;5.90;;;2.70;;
8642;SDS011;4359;49.358;11.256;2022-09-09T00:12:30;4.43;;;2.65;;
8642;SDS011;4359;49.358;11.256;2022-09-09T00:15:13;6.38;;;2.92;;
8642;SDS011;4359;49.358;11.256;2022-09-09T00:18:08;6.85;;;2.95;;
8642;SDS011;4359;49.358;11.256;2022-09-09T00:21:10;4.97;;;2.60;;
8642;SDS011;4359;49.358;11.256;2022-09-09T00:23:43;4.78;;;3.00;;
8642;SDS011;4359;49.358;11.256;2022-09-09T00:26:35;10.07;;;3.00;;
8642;SDS011;4359;49.358;11.256;2022-09-09T00:31:30;4.78;;;2.75;;
8642;SDS011;4359;49.358;11.256;2022-09-09T00:34:05;9.02;;;3.05;;
8642;SDS011;4359;49.358;11.256;2022-09-09T00:36:34;4.60;;;2.65;;
8642;SDS011;4359;49.358;11.256;2022-09-09T00:39:03;6.70;;;2.85;;
8642;SDS011;4359;49.358;11.256;2022-09-09T00:44:32;4.93;;;2.67;;
8642;SDS011;4359;49.358;11.256;2022-09-09T00:52:30;8.13;;;3.33;;
8642;SDS011;4359;49.358;11.256;2022-09-09T00:55:17;7.80;;;3.35;;
8642;SDS011;4359;49.358;11.256;2022-09-09T00:57:53;6.10;;;2.72;;
8642;SDS011;4359;49.358;11.256;2022-09-09T01:05:22;5.82;;;3.30;;
8642;SDS011;4359;49.358;11.256;2022-09-09T01:07:55;8.43;;;3.60;;
8642;SDS011;4359;49.358;11.256;2022-09-09T01:13:08;7.35;;;3.17;;
8642;SDS011;4359;49.358;11.256;2022-09-09T01:15:40;81.18;;;50.13;;
8642;SDS011;4359;49.358;11.256;2022-09-09T01:18:10;148.95;;;86.78;;
8642;SDS011;4359;49.358;11.256;2022-09-09T01:20:44;77.97;;;44.58;;
8642;SDS011;4359;49.358;11.256;2022-09-09T01:23:24;42.72;;;26.95;;
8642;SDS011;4359;49.358;11.256;2022-09-09T01:26:15;14.13;;;9.40;;
8642;SDS011;4359;49.358;11.256;2022-09-09T01:28:49;6.15;;;4.97;;
8642;SDS011;4359;49.358;11.256;2022-09-09T01:31:19;8.85;;;5.07;;
8642;SDS011;4359;49.358;11.256;2022-09-09T01:33:48;17.92;;;11.45;;
8642;SDS011;4359;49.358;11.256;2022-09-09T01:36:21;9.40;;;6.53;;
8642;SDS011;4359;49.358;11.256;2022-09-09T01:38:54;6.13;;;3.58;;
8642;SDS011;4359;49.358;11.256;2022-09-09T01:41:20;4.80;;;3.58;;
8642;SDS011;4359;49.358;11.256;2022-09-09T01:43:46;6.95;;;4.05;;
8642;SDS011;4359;49.358;11.256;2022-09-09T01:46:13;48.72;;;30.95;;
8642;SDS011;4359;49.358;11.256;2022-09-09T01:48:40;46.58;;;31.55;;
8642;SDS011;4359;49.358;11.256;2022-09-09T01:51:07;17.55;;;9.50;;
8642;SDS011;4359;49.358;11.256;2022-09-09T01:53:35;11.65;;;8.38;;
8642;SDS011;4359;49.358;11.256;2022-09-09T01:56:09;21.90;;;15.50;;
8642;SDS011;4359;49.358;11.256;2022-09-09T02:01:45;10.93;;;6.93;;
8642;SDS011;4359;49.358;11.256;2022-09-09T02:04:42;7.72;;;4.55;;
8642;SDS011;4359;49.358;11.256;2022-09-09T02:10:14;8.18;;;4.40;;
8642;SDS011;4359;49.358;11.256;2022-09-09T02:12:49;11.75;;;4.15;;
8642;SDS011;4359;49.358;11.256;2022-09-09T02:15:30;6.80;;;3.95;;
8642;SDS011;4359;49.358;11.256;2022-09-09T02:18:00;6.85;;;3.97;;
8642;SDS011;4359;49.358;11.256;2022-09-09T02:20:31;6.28;;;3.58;;
8642;SDS011;4359;49.358;11.256;2022-09-09T02:22:58;9.48;;;3.97;;
8642;SDS011;4359;49.358;11.256;2022-09-09T02:25:26;7.20;;;3.60;;
8642;SDS011;4359;49.358;11.256;2022-09-09T02:27:54;5.25;;;4.03;;
8642;SDS011;4359;49.358;11.256;2022-09-09T02:30:23;9.20;;;4.10;;
8642;SDS011;4359;49.358;11.256;2022-09-09T02:32:50;8.65;;;4.38;;
8642;SDS011;4359;49.358;11.256;2022-09-09T02:35:22;8.07;;;4.97;;
8642;SDS011;4359;49.358;11.256;2022-09-09T02:37:50;8.15;;;4.10;;
8642;SDS011;4359;49.358;11.256;2022-09-09T02:40:18;7.57;;;4.22;;
8642;SDS011;4359;49.358;11.256;2022-09-09T02:42:46;11.38;;;4.90;;
8642;SDS011;4359;49.358;11.256;2022-09-09T02:45:18;8.88;;;4.50;;
8642;SDS011;4359;49.358;11.256;2022-09-09T02:50:41;6.97;;;3.80;;
8642;SDS011;4359;49.358;11.256;2022-09-09T02:53:23;5.75;;;4.00;;
8642;SDS011;4359;49.358;11.256;2022-09-09T02:58:27;7.25;;;4.90;;
8642;SDS011;4359;49.358;11.256;2022-09-09T03:00:53;8.95;;;4.22;;
8642;SDS011;4359;49.358;11.256;2022-09-09T03:03:22;7.78;;;3.72;;
8642;SDS011;4359;49.358;11.256;2022-09-09T03:05:48;5.82;;;3.67;;
8642;SDS011;4359;49.358;11.256;2022-09-09T03:08:14;6.95;;;3.35;;
8642;SDS011;4359;49.358;11.256;2022-09-09T03:10:40;7.18;;;3.97;;
8642;SDS011;4359;49.358;11.256;2022-09-09T03:13:06;5.72;;;3.63;;
8642;SDS011;4359;49.358;11.256;2022-09-09T03:15:33;7.25;;;3.85;;
8642;SDS011;4359;49.358;11.256;2022-09-09T03:17:59;10.02;;;4.88;;
8642;SDS011;4359;49.358;11.256;2022-09-09T03:20:26;8.07;;;4.43;;
8642;SDS011;4359;49.358;11.256;2022-09-09T03:22:53;7.13;;;4.32;;
8642;SDS011;4359;49.358;11.256;2022-09-09T03:25:20;6.28;;;4.00;;
8642;SDS011;4359;49.358;11.256;2022-09-09T03:27:48;7.78;;;3.88;;
8642;SDS011;4359;49.358;11.256;2022-09-09T03:30:14;7.50;;;3.33;;
8642;SDS011;4359;49.358;11.256;2022-09-09T03:32:40;7.97;;;3.38;;
8642;SDS011;4359;49.358;11.256;2022-09-09T03:35:06;5.28;;;3.70;;
8642;SDS011;4359;49.358;11.256;2022-09-09T03:37:32;5.00;;;3.10;;
8642;SDS011;4359;49.358;11.256;2022-09-09T03:39:58;9.45;;;3.60;;
8642;SDS011;4359;49.358;11.256;2022-09-09T03:42:24;11.43;;;4.25;;
8642;SDS011;4359;49.358;11.256;2022-09-09T03:44:50;6.43;;;4.25;;
8642;SDS011;4359;49.358;11.256;2022-09-09T03:47:19;8.95;;;4.13;;
8642;SDS011;4359;49.358;11.256;2022-09-09T03:49:46;6.80;;;4.60;;
8642;SDS011;4359;49.358;11.256;2022-09-09T03:52:13;5.82;;;4.00;;
8642;SDS011;4359;49.358;11.256;2022-09-09T03:54:39;10.98;;;4.28;;
8642;SDS011;4359;49.358;11.256;2022-09-09T03:57:06;8.90;;;4.25;;
8642;SDS011;4359;49.358;11.256;2022-09-09T03:59:31;10.07;;;4.30;;
8642;SDS011;4359;49.358;11.256;2022-09-09T04:01:57;7.18;;;4.10;;
8642;SDS011;4359;49.358;11.256;2022-09-09T04:04:24;9.20;;;4.10;;
8642;SDS011;4359;49.358;11.256;2022-09-09T04:06:50;7.75;;;3.83;;
8642;SDS011;4359;49.358;11.256;2022-09-09T04:09:16;9.10;;;6.25;;
8642;SDS011;4359;49.358;11.256;2022-09-09T04:11:42;5.60;;;4.10;;
8642;SDS011;4359;49.358;11.256;2022-09-09T04:14:08;8.63;;;4.80;;
8642;SDS011;4359;49.358;11.256;2022-09-09T04:16:33;9.35;;;5.00;;
8642;SDS011;4359;49.358;11.256;2022-09-09T04:19:01;6.28;;;4.13;;
8642;SDS011;4359;49.358;11.256;2022-09-09T04:21:29;8.93;;;3.67;;
8642;SDS011;4359;49.358;11.256;2022-09-09T04:23:55;7.00;;;3.97;;
8642;SDS011;4359;49.358;11.256;2022-09-09T04:26:21;11.68;;;4.85;;
8642;SDS011;4359;49.358;11.256;2022-09-09T04:28:47;6.45;;;4.05;;
8642;SDS011;4359;49.358;11.256;2022-09-09T04:31:15;6.68;;;3.40;;
8642;SDS011;4359;49.358;11.256;2022-09-09T04:33:43;11.07;;;3.60;;
8642;SDS011;4359;49.358;11.256;2022-09-09T04:36:09;5.78;;;3.22;;
8642;SDS011;4359;49.358;11.256;2022-09-09T04:38:35;6.85;;;3.58;;
8642;SDS011;4359;49.358;11.256;2022-09-09T04:41:01;7.43;;;3.47;;
8642;SDS011;4359;49.358;11.256;2022-09-09T04:43:26;6.72;;;3.30;;
8642;SDS011;4359;49.358;11.256;2022-09-09T04:45:52;8.25;;;3.65;;
8642;SDS011;4359;49.358;11.256;2022-09-09T04:48:18;8.25;;;3.30;;
8642;SDS011;4359;49.358;11.256;2022-09-09T04:50:52;5.28;;;3.47;;
8642;SDS011;4359;49.358;11.256;2022-09-09T04:53:19;6.88;;;4.05;;
8642;SDS011;4359;49.358;11.256;2022-09-09T04:55:45;7.25;;;3.80;;
8642;SDS011;4359;49.358;11.256;2022-09-09T04:58:11;7.30;;;3.63;;
8642;SDS011;4359;49.358;11.256;2022-09-09T05:00:36;8.23;;;4.60;;
8642;SDS011;4359;49.358;11.256;2022-09-09T05:03:03;8.52;;;3.88;;
8642;SDS011;4359;49.358;11.256;2022-09-09T05:05:30;8.07;;;4.00;;
8642;SDS011;4359;49.358;11.256;2022-09-09T05:08:02;7.50;;;4.20;;
8642;SDS011;4359;49.358;11.256;2022-09-09T05:10:33;7.40;;;4.30;;
8642;SDS011;4359;49.358;11.256;2022-09-09T05:12:59;9.00;;;4.35;;
8642;SDS011;4359;49.358;11.256;2022-09-09T05:15:25;5.68;;;3.60;;
8642;SDS011;4359;49.358;11.256;2022-09-09T05:17:51;9.82;;;4.35;;
8642;SDS011;4359;49.358;11.256;2022-09-09T05:20:19;5.05;;;3.70;;
8642;SDS011;4359;49.358;11.256;2022-09-09T05:22:45;8.20;;;4.00;;
8642;SDS011;4359;49.358;11.256;2022-09-09T05:25:10;10.70;;;4.05;;
8642;SDS011;4359;49.358;11.256;2022-09-09T05:27:36;6.47;;;4.32;;
8642;SDS011;4359;49.358;11.256;2022-09-09T05:30:02;8.27;;;4.57;;
8642;SDS011;4359;49.358;11.256;2022-09-09T05:32:29;11.65;;;4.15;;
8642;SDS011;4359;49.358;11.256;2022-09-09T05:34:58;7.68;;;3.95;;
8642;SDS011;4359;49.358;11.256;2022-09-09T05:37:24;6.25;;;4.00;;
8642;SDS011;4359;49.358;11.256;2022-09-09T05:39:50;6.82;;;3.70;;
8642;SDS011;4359;49.358;11.256;2022-09-09T05:42:15;15.07;;;3.92;;
8642;SDS011;4359;49.358;11.256;2022-09-09T05:44:42;7.82;;;4.10;;
8642;SDS011;4359;49.358;11.256;2022-09-09T05:47:07;8.45;;;4.22;;
8642;SDS011;4359;49.358;11.256;2022-09-09T05:49:34;8.35;;;4.30;;
8642;SDS011;4359;49.358;11.256;2022-09-09T05:52:00;7.50;;;3.67;;
8642;SDS011;4359;49.358;11.256;2022-09-09T05:54:25;5.90;;;2.80;;
8642;SDS011;4359;49.358;11.256;2022-09-09T05:56:51;11.10;;;3.42;;
8642;SDS011;4359;49.358;11.256;2022-09-09T05:59:18;6.13;;;2.88;;
8642;SDS011;4359;49.358;11.256;2022-09-09T06:01:44;8.35;;;3.10;;
8642;SDS011;4359;49.358;11.256;2022-09-09T06:04:10;11.68;;;2.88;;
8642;SDS011;4359;49.358;11.256;2022-09-09T06:06:37;4.65;;;2.83;;
8642;SDS011;4359;49.358;11.256;2022-09-09T06:09:03;7.07;;;2.83;;
8642;SDS011;4359;49.358;11.256;2022-09-09T06:11:38;5.80;;;2.80;;
8642;SDS011;4359;49.358;11.256;2022-09-09T06:14:05;6.03;;;3.00;;
8642;SDS011;4359;49.358;11.256;2022-09-09T06:16:32;4.90;;;3.55;;
8642;SDS011;4359;49.358;11.256;2022-09-09T06:18:59;4.90;;;2.63;;
8642;SDS011;4359;49.358;11.256;2022-09-09T06:21:26;12.35;;;3.40;;
8642;SDS011;4359;49.358;11.256;2022-09-09T06:23:55;6.70;;;3.65;;
8642;SDS011;4359;49.358;11.256;2022-09-09T06:26:22;10.90;;;3.60;;
8642;SDS011;4359;49.358;11.256;2022-09-09T06:28:50;7.30;;;3.35;;
8642;SDS011;4359;49.358;11.256;2022-09-09T06:31:18;7.57;;;3.28;;
8642;SDS011;4359;49.358;11.256;2022-09-09T06:33:47;4.93;;;3.05;;
8642;SDS011;4359;49.358;11.256;2022-09-09T06:36:18;6.25;;;2.78;;
8642;SDS011;4359;49.358;11.256;2022-09-09T06:38:44;5.30;;;3.10;;
8642;SDS011;4359;49.358;11.256;2022-09-09T06:41:11;5.22;;;3.30;;
8642;SDS011;4359;49.358;11.256;2022-09-09T06:43:38;4.47;;;2.97;;
8642;SDS011;4359;49.358;11.256;2022-09-09T06:48:41;7.13;;;2.60;;
8642;SDS011;4359;49.358;11.256;2022-09-09T06:51:09;8.45;;;2.88;;
8642;SDS011;4359;49.358;11.256;2022-09-09T06:53:36;7.75;;;2.38;;
8642;SDS011;4359;49.358;11.256;2022-09-09T06:58:35;9.65;;;2.80;;
8642;SDS011;4359;49.358;11.256;2022-09-09T07:01:02;7.95;;;3.03;;
8642;SDS011;4359;49.358;11.256;2022-09-09T07:03:31;5.05;;;2.38;;
8642;SDS011;4359;49.358;11.256;2022-09-09T07:05:58;4.40;;;2.42;;
8642;SDS011;4359;49.358;11.256;2022-09-09T07:08:24;4.00;;;2.50;;
8642;SDS011;4359;49.358;11.256;2022-09-09T07:10:51;3.60;;;2.00;;
8642;SDS011;4359;49.358;11.256;2022-09-09T07:13:19;6.53;;;2.10;;
8642;SDS011;4359;49.358;11.256;2022-09-09T07:15:50;6.13;;;2.20;;
8642;SDS011;4359;49.358;11.256;2022-09-09T07:18:16;7.25;;;1.95;;
8642;SDS011;4359;49.358;11.256;2022-09-09T07:20:42;4.55;;;2.08;;
8642;SDS011;4359;49.358;11.256;2022-09-09T07:23:07;4.70;;;2.17;;
8642;SDS011;4359;49.358;11.256;2022-09-09T07:25:33;5.85;;;2.22;;
8642;SDS011;4359;49.358;11.256;2022-09-09T07:27:59;5.35;;;1.80;;
8642;SDS011;4359;49.358;11.256;2022-09-09T07:30:25;9.15;;;2.38;;
8642;SDS011;4359;49.358;11.256;2022-09-09T07:32:51;5.25;;;2.28;;
8642;SDS011;4359;49.358;11.256;2022-09-09T07:35:17;5.53;;;1.95;;
8642;SDS011;4359;49.358;11.256;2022-09-09T07:37:43;4.32;;;2.00;;
8642;SDS011;4359;49.358;11.256;2022-09-09T07:40:10;5.63;;;1.92;;
8642;SDS011;4359;49.358;11.256;2022-09-09T07:42:35;5.63;;;2.03;;
8642;SDS011;4359;49.358;11.256;2022-09-09T07:45:02;3.55;;;1.73;;
8642;SDS011;4359;49.358;11.256;2022-09-09T07:47:29;5.95;;;2.35;;
8642;SDS011;4359;49.358;11.256;2022-09-09T07:49:54;5.60;;;1.90;;
8642;SDS011;4359;49.358;11.256;2022-09-09T07:52:21;6.03;;;2.55;;
8642;SDS011;4359;49.358;11.256;2022-09-09T07:54:46;4.38;;;1.48;;
8642;SDS011;4359;49.358;11.256;2022-09-09T07:57:12;5.25;;;2.03;;
8642;SDS011;4359;49.358;11.256;2022-09-09T07:59:38;6.50;;;1.38;;
8642;SDS011;4359;49.358;11.256;2022-09-09T08:02:04;4.40;;;1.50;;
8642;SDS011;4359;49.358;11.256;2022-09-09T08:04:29;5.70;;;1.52;;
8642;SDS011;4359;49.358;11.256;2022-09-09T08:06:56;3.28;;;1.20;;
8642;SDS011;4359;49.358;11.256;2022-09-09T08:09:23;6.43;;;1.50;;
8642;SDS011;4359;49.358;11.256;2022-09-09T08:11:52;7.00;;;1.70;;
8642;SDS011;4359;49.358;11.256;2022-09-09T08:14:17;3.50;;;1.25;;
8642;SDS011;4359;49.358;11.256;2022-09-09T08:16:44;5.95;;;1.52;;
8642;SDS011;4359;49.358;11.256;2022-09-09T08:19:12;4.53;;;1.23;;
8642;SDS011;4359;49.358;11.256;2022-09-09T08:21:38;6.30;;;1.20;;
8642;SDS011;4359;49.358;11.256;2022-09-09T08:24:05;4.47;;;1.30;;
8642;SDS011;4359;49.358;11.256;2022-09-09T08:26:32;6.53;;;1.15;;
8642;SDS011;4359;49.358;11.256;2022-09-09T08:29:00;4.78;;;0.98;;
8642;SDS011;4359;49.358;11.256;2022-09-09T08:31:32;1.85;;;0.73;;
8642;SDS011;4359;49.358;11.256;2022-09-09T08:33:59;4.97;;;1.40;;
8642;SDS011;4359;49.358;11.256;2022-09-09T08:36:29;5.22;;;0.90;;
8642;SDS011;4359;49.358;11.256;2022-09-09T08:38:58;3.78;;;1.00;;
8642;SDS011;4359;49.358;11.256;2022-09-09T08:52:29;4.53;;;0.77;;
8642;SDS011;4359;49.358;11.256;2022-09-09T08:55:03;6.43;;;0.95;;
8642;SDS011;4359;49.358;11.256;2022-09-09T08:57:50;6.03;;;1.00;;
8642;SDS011;4359;49.358;11.256;2022-09-09T09:00:18;4.22;;;1.05;;
8642;SDS011;4359;49.358;11.256;2022-09-09T09:06:21;4.30;;;1.20;;
8642;SDS011;4359;49.358;11.256;2022-09-09T09:08:20;5.47;;;1.25;;
8642;SDS011;4359;49.358;11.256;2022-09-09T09:11:00;4.50;;;0.90;;
8642;SDS011;4359;49.358;11.256;2022-09-09T09:13:30;3.60;;;0.77;;
8642;SDS011;4359;49.358;11.256;2022-09-09T09:16:30;6.95;;;0.90;;
8642;SDS011;4359;49.358;11.256;2022-09-09T09:19:14;4.80;;;1.00;;
8642;SDS011;4359;49.358;11.256;2022-09-09T09:21:42;3.40;;;1.00;;
8642;SDS011;4359;49.358;11.256;2022-09-09T09:24:16;5.50;;;0.80;;
8642;SDS011;4359;49.358;11.256;2022-09-09T09:26:50;3.78;;;0.80;;
8642;SDS011;4359;49.358;11.256;2022-09-09T09:29:18;2.17;;;0.70;;
8642;SDS011;4359;49.358;11.256;2022-09-09T09:31:57;3.53;;;0.60;;
8642;SDS011;4359;49.358;11.256;2022-09-09T09:34:26;3.40;;;0.70;;
8642;SDS011;4359;49.358;11.256;2022-09-09T09:39:28;5.25;;;1.00;;
8642;SDS011;4359;49.358;11.256;2022-09-09T09:41:55;2.47;;;0.98;;
8642;SDS011;4359;49.358;11.256;2022-09-09T09:44:31;3.30;;;0.90;;
8642;SDS011;4359;49.358;11.256;2022-09-09T09:49:59;3.10;;;0.88;;
8642;SDS011;4359;49.358;11.256;2022-09-09T09:52:26;5.30;;;0.90;;
8642;SDS011;4359;49.358;11.256;2022-09-09T09:54:55;5.20;;;0.90;;
8642;SDS011;4359;49.358;11.256;2022-09-09T09:57:25;5.13;;;1.05;;
8642;SDS011;4359;49.358;11.256;2022-09-09T10:02:40;5.78;;;0.82;;
8642;SDS011;4359;49.358;11.256;2022-09-09T10:08:33;2.92;;;0.75;;
8642;SDS011;4359;49.358;11.256;2022-09-09T10:13:40;3.75;;;0.70;;
8642;SDS011;4359;49.358;11.256;2022-09-09T10:16:13;3.15;;;0.82;;
8642;SDS011;4359;49.358;11.256;2022-09-09T10:18:59;2.65;;;0.57;;
8642;SDS011;4359;49.358;11.256;2022-09-09T10:24:31;4.88;;;0.80;;
8642;SDS011;4359;49.358;11.256;2022-09-09T10:43:20;3.20;;;1.02;;
8642;SDS011;4359;49.358;11.256;2022-09-09T10:53:53;2.80;;;0.85;;
8642;SDS011;4359;49.358;11.256;2022-09-09T10:56:37;2.22;;;0.60;;
8642;SDS011;4359;49.358;11.256;2022-09-09T10:59:16;6.68;;;1.02;;
8642;SDS011;4359;49.358;11.256;2022-09-09T11:01:48;4.05;;;0.82;;
8642;SDS011;4359;49.358;11.256;2022-09-09T11:07:42;3.50;;;1.05;;
8642;SDS011;4359;49.358;11.256;2022-09-09T11:10:22;2.35;;;0.50;;
8642;SDS011;4359;49.358;11.256;2022-09-09T11:12:56;2.63;;;0.60;;
8642;SDS011;4359;49.358;11.256;2022-09-09T11:15:31;3.75;;;0.75;;
8642;SDS011;4359;49.358;11.256;2022-09-09T11:18:04;3.35;;;0.70;;
8642;SDS011;4359;49.358;11.256;2022-09-09T11:20:36;2.55;;;0.60;;
8642;SDS011;4359;49.358;11.256;2022-09-09T11:23:09;4.30;;;0.63;;
8642;SDS011;4359;49.358;11.256;2022-09-09T11:25:44;7.03;;;1.25;;
8642;SDS011;4359;49.358;11.256;2022-09-09T11:33:39;4.63;;;0.80;;
8642;SDS011;4359;49.358;11.256;2022-09-09T11:42:05;4.10;;;0.80;;
8642;SDS011;4359;49.358;11.256;2022-09-09T11:44:51;3.05;;;0.63;;
8642;SDS011;4359;49.358;11.256;2022-09-09T11:47:24;3.78;;;0.70;;
8642;SDS011;4359;49.358;11.256;2022-09-09T11:52:41;2.78;;;0.80;;
8642;SDS011;4359;49.358;11.256;2022-09-09T11:55:26;4.43;;;0.80;;
8642;SDS011;4359;49.358;11.256;2022-09-09T11:58:04;3.72;;;1.10;;
8642;SDS011;4359;49.358;11.256;2022-09-09T12:00:43;3.60;;;0.82;;
8642;SDS011;4359;49.358;11.256;2022-09-09T12:06:11;8.10;;;0.90;;
8642;SDS011;4359;49.358;11.256;2022-09-09T12:08:43;4.00;;;0.90;;
8642;SDS011;4359;49.358;11.256;2022-09-09T12:11:11;3.63;;;0.70;;
8642;SDS011;4359;49.358;11.256;2022-09-09T12:13:52;4.45;;;0.68;;
8642;SDS011;4359;49.358;11.256;2022-09-09T12:16:36;4.55;;;0.70;;
8642;SDS011;4359;49.358;11.256;2022-09-09T12:19:04;4.05;;;1.00;;
8642;SDS011;4359;49.358;11.256;2022-09-09T12:24:10;5.40;;;0.80;;
8642;SDS011;4359;49.358;11.256;2022-09-09T12:26:43;3.13;;;0.77;;
8642;SDS011;4359;49.358;11.256;2022-09-09T12:34:50;5.28;;;1.00;;
8642;SDS011;4359;49.358;11.256;2022-09-09T12:37:32;8.35;;;1.05;;
8642;SDS011;4359;49.358;11.256;2022-09-09T12:40:24;15.95;;;3.22;;
8642;SDS011;4359;49.358;11.256;2022-09-09T12:42:52;10.30;;;2.10;;
8642;SDS011;4359;49.358;11.256;2022-09-09T12:45:20;6.72;;;1.70;;
8642;SDS011;4359;49.358;11.256;2022-09-09T12:48:08;7.70;;;1.50;;
8642;SDS011;4359;49.358;11.256;2022-09-09T12:50:46;7.25;;;1.67;;
8642;SDS011;4359;49.358;11.256;2022-09-09T12:56:07;11.45;;;1.73;;
8642;SDS011;4359;49.358;11.256;2022-09-09T12:58:36;5.70;;;1.13;;
8642;SDS011;4359;49.358;11.256;2022-09-09T13:01:02;9.02;;;1.30;;
8642;SDS011;4359;49.358;11.256;2022-09-09T13:03:30;6.32;;;1.50;;
8642;SDS011;4359;49.358;11.256;2022-09-09T13:05:58;8.75;;;1.80;;
8642;SDS011;4359;49.358;11.256;2022-09-09T13:08:35;6.97;;;1.58;;
8642;SDS011;4359;49.358;11.256;2022-09-09T13:11:02;7.20;;;1.67;;
8642;SDS011;4359;49.358;11.256;2022-09-09T13:13:36;8.90;;;1.30;;
8642;SDS011;4359;49.358;11.256;2022-09-09T13:16:06;8.43;;;1.10;;
8642;SDS011;4359;49.358;11.256;2022-09-09T13:18:44;5.88;;;1.13;;
8642;SDS011;4359;49.358;11.256;2022-09-09T13:21:10;2.67;;;0.80;;
8642;SDS011;4359;49.358;11.256;2022-09-09T13:23:36;4.35;;;1.00;;
8642;SDS011;4359;49.358;11.256;2022-09-09T13:26:03;3.35;;;0.90;;
8642;SDS011;4359;49.358;11.256;2022-09-09T13:28:46;2.83;;;0.80;;
8642;SDS011;4359;49.358;11.256;2022-09-09T13:31:28;3.78;;;0.90;;
8642;SDS011;4359;49.358;11.256;2022-09-09T13:33:56;5.03;;;0.70;;
8642;SDS011;4359;49.358;11.256;2022-09-09T13:36:33;4.15;;;0.68;;
8642;SDS011;4359;49.358;11.256;2022-09-09T13:39:00;7.18;;;1.10;;
8642;SDS011;4359;49.358;11.256;2022-09-09T13:41:35;3.03;;;0.80;;
8642;SDS011;4359;49.358;11.256;2022-09-09T13:44:14;7.47;;;0.73;;
8642;SDS011;4359;49.358;11.256;2022-09-09T13:46:45;5.60;;;0.90;;
8642;SDS011;4359;49.358;11.256;2022-09-09T13:51:40;4.82;;;1.48;;
8642;SDS011;4359;49.358;11.256;2022-09-09T13:54:10;5.68;;;0.75;;
8642;SDS011;4359;49.358;11.256;2022-09-09T13:56:37;3.28;;;0.80;;
8642;SDS011;4359;49.358;11.256;2022-09-09T13:59:04;2.75;;;0.73;;
8642;SDS011;4359;49.358;11.256;2022-09-09T14:01:34;4.13;;;1.00;;
8642;SDS011;4359;49.358;11.256;2022-09-09T14:04:00;4.43;;;1.00;;
8642;SDS011;4359;49.358;11.256;2022-09-09T14:06:26;4.53;;;1.20;;
8642;SDS011;4359;49.358;11.256;2022-09-09T14:08:52;8.75;;;0.98;;
8642;SDS011;4359;49.358;11.256;2022-09-09T14:11:19;5.07;;;1.13;;
8642;SDS011;4359;49.358;11.256;2022-09-09T14:13:46;5.95;;;1.77;;
8642;SDS011;4359;49.358;11.256;2022-09-09T14:16:14;3.08;;;0.90;;
8642;SDS011;4359;49.358;11.256;2022-09-09T14:18:44;3.78;;;1.33;;
8642;SDS011;4359;49.358;11.256;2022-09-09T14:21:10;7.00;;;1.30;;
8642;SDS011;4359;49.358;11.256;2022-09-09T14:23:36;7.60;;;1.45;;
8642;SDS011;4359;49.358;11.256;2022-09-09T14:26:03;3.78;;;0.90;;
8642;SDS011;4359;49.358;11.256;2022-09-09T14:28:30;4.43;;;1.00;;
8642;SDS011;4359;49.358;11.256;2022-09-09T14:30:58;6.00;;;1.15;;
8642;SDS011;4359;49.358;11.256;2022-09-09T14:33:25;5.18;;;0.90;;
8642;SDS011;4359;49.358;11.256;2022-09-09T14:35:55;4.65;;;0.90;;
8642;SDS011;4359;49.358;11.256;2022-09-09T14:38:24;5.00;;;1.15;;
8642;SDS011;4359;49.358;11.256;2022-09-09T14:40:53;5.13;;;1.00;;
8642;SDS011;4359;49.358;11.256;2022-09-09T14:43:19;4.65;;;1.10;;
8642;SDS011;4359;49.358;11.256;2022-09-09T14:45:45;3.95;;;1.15;;
8642;SDS011;4359;49.358;11.256;2022-09-09T14:48:13;5.35;;;1.20;;
8642;SDS011;4359;49.358;11.256;2022-09-09T14:50:39;7.90;;;1.10;;
8642;SDS011;4359;49.358;11.256;2022-09-09T14:53:06;4.10;;;0.77;;
8642;SDS011;4359;49.358;11.256;2022-09-09T14:55:33;6.65;;;1.10;;
8642;SDS011;4359;49.358;11.256;2022-09-09T14:57:59;5.15;;;1.48;;
8642;SDS011;4359;49.358;11.256;2022-09-09T15:00:25;3.35;;;1.05;;
8642;SDS011;4359;49.358;11.256;2022-09-09T15:02:53;5.97;;;0.95;;
8642;SDS011;4359;49.358;11.256;2022-09-09T15:05:19;3.35;;;0.90;;
8642;SDS011;4359;49.358;11.256;2022-09-09T15:07:46;3.92;;;0.80;;
8642;SDS011;4359;49.358;11.256;2022-09-09T15:10:13;5.63;;;0.90;;
8642;SDS011;4359;49.358;11.256;2022-09-09T15:12:39;5.72;;;0.90;;
8642;SDS011;4359;49.358;11.256;2022-09-09T15:15:06;3.78;;;0.90;;
8642;SDS011;4359;49.358;11.256;2022-09-09T15:17:33;6.50;;;0.95;;
8642;SDS011;4359;49.358;11.256;2022-09-09T15:19:59;6.50;;;1.40;;
8642;SDS011;4359;49.358;11.256;2022-09-09T15:22:24;4.82;;;1.00;;
8642;SDS011;4359;49.358;11.256;2022-09-09T15:24:50;3.20;;;1.20;;
8642;SDS011;4359;49.358;11.256;2022-09-09T15:27:16;6.30;;;0.93;;
8642;SDS011;4359;49.358;11.256;2022-09-09T15:29:42;4.72;;;1.10;;
8642;SDS011;4359;49.358;11.256;2022-09-09T15:32:09;4.18;;;1.10;;
8642;SDS011;4359;49.358;11.256;2022-09-09T15:34:34;4.72;;;1.42;;
8642;SDS011;4359;49.358;11.256;2022-09-09T15:37:00;4.20;;;1.27;;
8642;SDS011;4359;49.358;11.256;2022-09-09T15:39:26;8.30;;;1.40;;
8642;SDS011;4359;49.358;11.256;2022-09-09T15:41:51;4.95;;;0.85;;
8642;SDS011;4359;49.358;11.256;2022-09-09T15:44:17;6.60;;;1.10;;
8642;SDS011;4359;49.358;11.256;2022-09-09T15:46:50;5.18;;;0.90;;
8642;SDS011;4359;49.358;11.256;2022-09-09T15:49:21;4.32;;;1.00;;
8642;SDS011;4359;49.358;11.256;2022-09-09T15:51:59;4.32;;;0.73;;
8642;SDS011;4359;49.358;11.256;2022-09-09T15:54:28;5.93;;;1.05;;
8642;SDS011;4359;49.358;11.256;2022-09-09T15:56:58;2.58;;;0.65;;
8642;SDS011;4359;49.358;11.256;2022-09-09T15:59:26;5.95;;;1.30;;
8642;SDS011;4359;49.358;11.256;2022-09-09T16:01:52;3.97;;;0.95;;
8642;SDS011;4359;49.358;11.256;2022-09-09T16:04:20;9.02;;;1.00;;
8642;SDS011;4359;49.358;11.256;2022-09-09T16:06:50;4.80;;;0.98;;
8642;SDS011;4359;49.358;11.256;2022-09-09T16:09:21;4.75;;;1.05;;
8642;SDS011;4359;49.358;11.256;2022-09-09T16:11:46;3.80;;;0.80;;
8642;SDS011;4359;49.358;11.256;2022-09-09T16:14:13;3.40;;;0.63;;
8642;SDS011;4359;49.358;11.256;2022-09-09T16:16:40;3.67;;;0.88;;
8642;SDS011;4359;49.358;11.256;2022-09-09T16:19:07;5.97;;;1.13;;
8642;SDS011;4359;49.358;11.256;2022-09-09T16:21:36;6.50;;;1.38;;
8642;SDS011;4359;49.358;11.256;2022-09-09T16:24:05;3.58;;;0.73;;
8642;SDS011;4359;49.358;11.256;2022-09-09T16:26:32;5.95;;;0.80;;
8642;SDS011;4359;49.358;11.256;2022-09-09T16:28:59;3.70;;;1.00;;
8642;SDS011;4359;49.358;11.256;2022-09-09T16:31:26;3.92;;;0.90;;
8642;SDS011;4359;49.358;11.256;2022-09-09T16:33:53;4.05;;;0.98;;
8642;SDS011;4359;49.358;11.256;2022-09-09T16:36:20;3.78;;;0.98;;
8642;SDS011;4359;49.358;11.256;2022-09-09T16:38:54;8.80;;;1.55;;
8642;SDS011;4359;49.358;11.256;2022-09-09T16:41:22;6.35;;;1.45;;
8642;SDS011;4359;49.358;11.256;2022-09-09T16:43:52;5.15;;;1.08;;
8642;SDS011;4359;49.358;11.256;2022-09-09T16:46:22;4.85;;;1.20;;
8642;SDS011;4359;49.358;11.256;2022-09-09T16:48:49;2.58;;;0.90;;
8642;SDS011;4359;49.358;11.256;2022-09-09T16:51:16;4.47;;;1.00;;
8642;SDS011;4359;49.358;11.256;2022-09-09T16:53:44;5.05;;;1.10;;
8642;SDS011;4359;49.358;11.256;2022-09-09T16:56:11;3.92;;;1.25;;
8642;SDS011;4359;49.358;11.256;2022-09-09T16:58:38;9.40;;;2.13;;
8642;SDS011;4359;49.358;11.256;2022-09-09T17:01:04;3.72;;;1.15;;
8642;SDS011;4359;49.358;11.256;2022-09-09T17:03:31;5.32;;;1.25;;
8642;SDS011;4359;49.358;11.256;2022-09-09T17:05:57;5.32;;;1.40;;
8642;SDS011;4359;49.358;11.256;2022-09-09T17:08:27;4.50;;;1.00;;
8642;SDS011;4359;49.358;11.256;2022-09-09T17:10:56;5.50;;;1.20;;
8642;SDS011;4359;49.358;11.256;2022-09-09T17:13:23;3.63;;;1.23;;
8642;SDS011;4359;49.358;11.256;2022-09-09T17:15:50;3.40;;;1.17;;
8642;SDS011;4359;49.358;11.256;2022-09-09T17:18:15;7.38;;;1.42;;
8642;SDS011;4359;49.358;11.256;2022-09-09T17:20:42;5.55;;;1.25;;
8642;SDS011;4359;49.358;11.256;2022-09-09T17:23:09;7.10;;;1.58;;
8642;SDS011;4359;49.358;11.256;2022-09-09T17:25:35;4.22;;;1.13;;